首页
METAR-TAF:

METAR-TAF

机场 :

傑克遜維爾, 北卡罗来纳州, 美国

纬度: 34-42-21N, 经度: 077-26-27W, 海拔: 7米

当前天气观测

该预报发布于41分钟前的09:56 UTC
风速9节,风向北转东北
温度 7°C
湿度 93%
气压 1022 hPa
能見度: 11.3公里
阴天层高于500英尺
小雨

METAR: KNCA 150956Z AUTO 02009KT 7SM -RA OVC005 07/06 A3018 RMK AO2 SLP223 P0007 T00720061 $

时间: 05:37 (10:37 UTC)

预报

预报有效从15日的 03点(UTC)到 16日的 03点(UTC)
风速6节,风向多变
能见度10公里或以上
多云层高于8000英尺
阴天层高于10000英尺
成为
从 15日的 04点(UTC)到 15日的 06点(UTC)
风速8节,风向
能見度: 4800
多云层高于800英尺
阴天层高于1500英尺
雨, 轻雾
从 15日的 1500点(UTC)
风速10节,风向北转东北,有时为15节阵风
能見度: 6000
阴天层高于5000英尺
雨, 轻雾

TAF: KNCA 1503/1603 VRB06KT 9999 BKN080 OVC100 QNH3023INS BECMG 1504/1506 01008KT 4800 RA BR BKN008 OVC015 QNH3016INS FM151500 03010G15KT 6000 RA BR BNK030 OVC050 QNH3000INS T08/1512Z T14/1602Z

超过4000个机场的气象观测和天气预报(METAR&TAF报告)。

可查询的气象台以黄色和红色小点在地图上表示。

将鼠标移到小点上方,可查看气象台名称。

然后点击查看天气观测和预报。

如需切换地图:点击带黑十字的绿色按钮放大地图;点击带横线的绿色按钮缩小地图;或者点击绿色箭头查看邻近地区的地图。


METAR-TAF: